createdAt,value
2018-10-01T00:03:23.247Z,11.10
2018-10-01T00:07:26.956Z,11.00
2018-10-01T00:11:30.681Z,11.00
2018-10-01T00:15:34.498Z,11.00
2018-10-01T00:19:43.598Z,10.90
2018-10-01T00:23:47.337Z,11.00
2018-10-01T00:27:51.021Z,11.00
2018-10-01T00:31:54.816Z,11.00
2018-10-01T00:35:58.685Z,11.00
2018-10-01T00:40:02.504Z,11.10
2018-10-01T00:44:06.273Z,11.10
2018-10-01T00:48:09.993Z,11.10
2018-10-01T00:52:13.673Z,11.20
2018-10-01T00:56:17.412Z,11.20
2018-10-01T01:00:21.231Z,11.30
2018-10-01T01:04:24.968Z,11.30
2018-10-01T01:08:28.817Z,11.40
2018-10-01T01:12:32.496Z,11.40
2018-10-01T01:16:36.237Z,11.40
2018-10-01T01:20:40.037Z,11.50
2018-10-01T01:24:43.788Z,11.50
2018-10-01T01:28:47.513Z,11.50
2018-10-01T01:32:51.240Z,11.60
2018-10-01T01:36:55.065Z,11.60
2018-10-01T01:40:58.783Z,11.60
2018-10-01T01:45:03.437Z,11.60
2018-10-01T01:49:07.196Z,11.60
2018-10-01T01:53:11.294Z,11.60
2018-10-01T01:57:15.010Z,11.60
2018-10-01T02:01:18.798Z,11.70
2018-10-01T02:05:22.518Z,11.60
2018-10-01T02:09:26.229Z,11.70
2018-10-01T02:13:29.904Z,11.60
2018-10-01T02:17:33.612Z,11.60
2018-10-01T02:21:37.349Z,11.70
2018-10-01T02:25:41.058Z,11.70
2018-10-01T02:29:44.771Z,11.70
2018-10-01T02:33:48.565Z,11.70
2018-10-01T02:37:52.265Z,11.70
2018-10-01T02:41:55.972Z,11.70
2018-10-01T02:45:59.769Z,11.70
2018-10-01T02:50:03.629Z,11.70
2018-10-01T02:54:12.589Z,11.70
2018-10-01T02:58:16.290Z,11.70
2018-10-01T03:02:20.021Z,11.80
2018-10-01T03:06:23.738Z,11.80
2018-10-01T03:10:27.473Z,11.80
2018-10-01T03:14:31.148Z,11.80
2018-10-01T03:18:34.980Z,11.80
2018-10-01T03:22:38.681Z,11.80
2018-10-01T03:26:42.372Z,11.80
2018-10-01T03:30:46.120Z,11.80
2018-10-01T03:34:49.870Z,11.80
2018-10-01T03:38:53.579Z,11.80
2018-10-01T03:42:57.297Z,11.70
2018-10-01T03:47:01.029Z,11.70
2018-10-01T03:51:04.773Z,11.70
2018-10-01T03:55:08.560Z,11.70
2018-10-01T03:59:12.282Z,11.60
2018-10-01T04:03:16.023Z,11.70
2018-10-01T04:07:19.729Z,11.60
2018-10-01T04:11:23.438Z,11.60
2018-10-01T04:15:27.144Z,11.60
2018-10-01T04:19:30.848Z,11.60
2018-10-01T04:23:34.581Z,11.60
2018-10-01T04:27:38.340Z,11.60
2018-10-01T04:31:42.496Z,11.50
2018-10-01T04:35:46.236Z,11.50
2018-10-01T04:39:49.904Z,11.50
2018-10-01T04:43:53.600Z,11.40
2018-10-01T04:47:57.293Z,11.40
2018-10-01T04:52:00.994Z,11.40
2018-10-01T04:56:04.700Z,11.40
2018-10-01T05:00:08.613Z,11.30
2018-10-01T05:04:12.303Z,11.30
2018-10-01T05:08:16.052Z,11.30
2018-10-01T05:12:22.910Z,11.30
2018-10-01T05:16:29.123Z,11.30
2018-10-01T05:20:34.555Z,11.30
2018-10-01T05:24:40.710Z,11.20
2018-10-01T05:28:46.782Z,11.10
2018-10-01T05:32:51.561Z,11.10
2018-10-01T05:36:55.330Z,11.10
2018-10-01T05:40:59.022Z,11.00
2018-10-01T05:45:02.724Z,11.00
2018-10-01T05:49:06.679Z,11.00
2018-10-01T05:53:10.312Z,11.00
2018-10-01T05:57:14.033Z,11.00
2018-10-01T06:01:17.712Z,11.00
2018-10-01T06:05:21.437Z,11.00
2018-10-01T06:09:25.137Z,11.00
2018-10-01T06:13:28.872Z,11.00
2018-10-01T06:17:32.591Z,11.00
2018-10-01T06:21:36.261Z,11.00
2018-10-01T06:25:39.955Z,11.00
2018-10-01T06:29:43.678Z,10.90
2018-10-01T06:33:47.508Z,10.90
2018-10-01T06:37:51.241Z,10.90
2018-10-01T06:41:54.967Z,10.90
2018-10-01T06:45:58.676Z,10.90
2018-10-01T06:50:02.421Z,10.90
2018-10-01T06:54:06.140Z,10.90
2018-10-01T06:58:09.837Z,10.90
2018-10-01T07:02:13.515Z,10.90
2018-10-01T07:06:17.335Z,10.90
2018-10-01T07:10:21.058Z,10.90
2018-10-01T07:14:24.815Z,10.90
2018-10-01T07:18:28.595Z,11.00
2018-10-01T07:22:32.328Z,11.00
2018-10-01T07:26:36.043Z,11.00
2018-10-01T07:30:39.748Z,11.00
2018-10-01T07:34:43.549Z,11.10
2018-10-01T07:38:47.289Z,11.10
2018-10-01T07:42:50.984Z,11.10
2018-10-01T07:46:54.674Z,11.10
2018-10-01T07:50:58.554Z,11.20
2018-10-01T07:55:02.177Z,11.10
2018-10-01T07:59:06.004Z,11.20
2018-10-01T08:03:09.750Z,11.20
2018-10-01T08:07:13.408Z,11.20
2018-10-01T08:11:17.085Z,11.20
2018-10-01T08:15:20.774Z,11.20
2018-10-01T08:19:24.491Z,11.30
2018-10-01T08:23:28.204Z,11.20
2018-10-01T08:27:31.876Z,11.30
2018-10-01T08:31:36.502Z,11.40
2018-10-01T08:35:40.320Z,11.40
2018-10-01T08:39:44.462Z,11.50
2018-10-01T08:43:48.161Z,11.50
2018-10-01T08:47:51.831Z,11.60
2018-10-01T08:54:04.728Z,11.60
2018-10-01T08:58:08.453Z,11.70
2018-10-01T09:02:12.186Z,11.80
2018-10-01T09:06:15.909Z,11.80
2018-10-01T09:10:19.612Z,12.00
2018-10-01T09:14:23.302Z,12.10
2018-10-01T09:18:27.103Z,12.20
2018-10-01T09:22:30.844Z,12.20
2018-10-01T09:26:34.732Z,12.30
2018-10-01T09:30:38.454Z,12.50
2018-10-01T09:34:42.189Z,12.50
2018-10-01T09:38:45.892Z,12.60
2018-10-01T09:42:49.584Z,12.70
2018-10-01T09:46:53.393Z,12.80
2018-10-01T09:50:57.142Z,12.80
2018-10-01T09:55:00.815Z,12.90
2018-10-01T09:59:04.519Z,12.90
2018-10-01T10:03:08.324Z,12.90
2018-10-01T10:07:12.020Z,13.00
2018-10-01T10:11:15.745Z,13.00
2018-10-01T10:15:19.420Z,13.10
2018-10-01T10:19:23.121Z,13.20
2018-10-01T10:23:26.848Z,13.10
2018-10-01T10:27:30.550Z,13.10
2018-10-01T10:31:34.289Z,13.00
2018-10-01T10:35:38.004Z,12.90
2018-10-01T10:39:41.793Z,13.00
2018-10-01T10:43:45.433Z,13.10
2018-10-01T10:47:49.132Z,13.20
2018-10-01T10:51:52.840Z,13.20
2018-10-01T10:55:56.583Z,13.30
2018-10-01T11:00:00.300Z,13.30
2018-10-01T11:04:04.010Z,13.40
2018-10-01T11:08:07.769Z,13.50
2018-10-01T11:12:11.437Z,13.60
2018-10-01T11:16:15.102Z,13.60
2018-10-01T11:20:18.928Z,13.60
2018-10-01T11:24:22.624Z,13.60
2018-10-01T11:28:26.339Z,13.60
2018-10-01T11:32:30.071Z,13.70
2018-10-01T11:36:33.750Z,13.60
2018-10-01T11:40:37.675Z,13.70
2018-10-01T11:44:41.387Z,13.50
2018-10-01T11:48:45.156Z,13.40
2018-10-01T11:52:48.858Z,13.30
2018-10-01T11:56:52.546Z,13.30
2018-10-01T12:00:56.301Z,13.20
2018-10-01T12:05:00.001Z,13.00
2018-10-01T12:09:04.024Z,12.80
2018-10-01T12:13:07.720Z,12.60
2018-10-01T12:17:11.396Z,12.40
2018-10-01T12:21:15.133Z,12.20
2018-10-01T12:25:18.872Z,12.20
2018-10-01T12:29:22.600Z,12.10
2018-10-01T12:33:26.569Z,12.00
2018-10-01T12:37:30.230Z,12.00
2018-10-01T12:41:33.980Z,12.00
2018-10-01T12:45:37.745Z,12.00
2018-10-01T12:49:41.500Z,12.10
2018-10-01T12:53:45.168Z,12.20
2018-10-01T12:57:48.832Z,12.20
2018-10-01T13:01:52.520Z,12.30
2018-10-01T13:05:56.221Z,12.30
2018-10-01T13:09:59.924Z,12.30
2018-10-01T13:14:03.674Z,12.40
2018-10-01T13:18:07.403Z,12.50
2018-10-01T13:22:11.557Z,12.40
2018-10-01T13:26:15.264Z,12.50
2018-10-01T13:30:19.083Z,12.50
2018-10-01T13:34:22.774Z,12.50
2018-10-01T13:38:26.456Z,12.40
2018-10-01T13:42:30.225Z,12.40
2018-10-01T13:46:33.974Z,12.40
2018-10-01T13:50:37.684Z,12.60
2018-10-01T13:54:41.600Z,12.70
2018-10-01T13:58:45.294Z,12.80
2018-10-01T14:02:49.017Z,12.70
2018-10-01T14:06:52.716Z,12.60
2018-10-01T14:10:56.418Z,12.50
2018-10-01T14:15:00.190Z,12.40
2018-10-01T14:19:03.907Z,12.30
2018-10-01T14:23:07.621Z,12.20
2018-10-01T14:27:11.319Z,12.20
2018-10-01T14:31:15.026Z,12.10
2018-10-01T14:35:18.760Z,12.00
2018-10-01T14:39:22.473Z,12.10
2018-10-01T14:43:26.229Z,12.20
2018-10-01T14:47:29.914Z,12.40
2018-10-01T14:51:33.643Z,12.50
2018-10-01T14:55:37.349Z,12.70
2018-10-01T14:59:40.996Z,13.00
2018-10-01T15:03:44.735Z,13.30
2018-10-01T15:07:48.402Z,13.50
2018-10-01T15:11:52.113Z,13.70
2018-10-01T15:15:55.816Z,13.80
2018-10-01T15:19:59.502Z,13.70
2018-10-01T15:24:03.296Z,13.50
2018-10-01T15:28:07.062Z,13.40
2018-10-01T15:32:10.776Z,13.20
2018-10-01T15:36:14.645Z,13.00
2018-10-01T15:40:18.290Z,13.00
2018-10-01T15:44:22.111Z,12.80
2018-10-01T15:48:25.813Z,12.70
2018-10-01T15:52:29.534Z,12.60
2018-10-01T15:56:33.265Z,12.60
2018-10-01T16:00:36.944Z,12.40
2018-10-01T16:04:40.902Z,12.40
2018-10-01T16:08:44.622Z,12.30
2018-10-01T16:12:48.338Z,12.20
2018-10-01T16:16:52.216Z,12.10
2018-10-01T16:29:28.537Z,12.00
2018-10-01T16:33:32.401Z,11.70
2018-10-01T16:37:36.112Z,11.60
2018-10-01T16:41:39.795Z,11.60
2018-10-01T16:45:43.521Z,11.50
2018-10-01T16:49:47.258Z,11.30
2018-10-01T16:53:50.960Z,11.10
2018-10-01T16:57:54.696Z,10.90
2018-10-01T17:01:58.440Z,10.60
2018-10-01T17:06:02.152Z,10.50
2018-10-01T17:10:06.073Z,10.50
2018-10-01T17:14:10.050Z,10.40
2018-10-01T17:18:13.803Z,10.30
2018-10-01T17:22:17.530Z,10.20
2018-10-01T17:26:21.267Z,10.20
2018-10-01T17:30:25.060Z,10.10
2018-10-01T17:34:28.832Z,10.00
2018-10-01T17:38:32.615Z,10.00
2018-10-01T17:42:36.303Z,9.90
2018-10-01T17:46:40.042Z,9.80
2018-10-01T17:50:43.766Z,9.70
2018-10-01T17:54:47.513Z,9.70
2018-10-01T17:58:51.230Z,9.70
2018-10-01T18:02:54.950Z,9.70
2018-10-01T18:06:58.702Z,9.70
2018-10-01T18:11:02.762Z,9.70
2018-10-01T18:15:07.470Z,9.70
2018-10-01T18:19:11.206Z,9.60
2018-10-01T18:23:14.908Z,9.60
2018-10-01T18:27:18.604Z,9.60
2018-10-01T18:31:22.328Z,9.50
2018-10-01T18:35:26.086Z,9.50
2018-10-01T18:39:31.090Z,9.50
2018-10-01T18:43:34.914Z,9.50
2018-10-01T18:47:38.586Z,9.50
2018-10-01T18:51:42.300Z,9.40
2018-10-01T18:55:46.011Z,9.40
2018-10-01T18:59:57.965Z,9.40
2018-10-01T19:04:01.777Z,9.30
2018-10-01T19:08:05.462Z,9.30
2018-10-01T19:12:09.277Z,9.30
2018-10-01T19:16:12.942Z,9.20
2018-10-01T19:20:16.714Z,9.20
2018-10-01T19:24:20.478Z,9.10
2018-10-01T19:28:24.171Z,9.10
2018-10-01T19:32:27.963Z,9.10
2018-10-01T19:36:31.731Z,9.00
2018-10-01T19:40:35.498Z,8.90
2018-10-01T19:44:39.264Z,8.90
2018-10-01T19:48:42.992Z,8.90
2018-10-01T19:52:46.746Z,8.80
2018-10-01T19:56:50.490Z,8.80
2018-10-01T20:00:54.301Z,8.70
2018-10-01T20:04:58.026Z,8.70
2018-10-01T20:09:01.817Z,8.70
2018-10-01T20:13:05.609Z,8.70
2018-10-01T20:17:09.418Z,8.70
2018-10-01T20:21:13.169Z,8.60
2018-10-01T20:25:16.915Z,8.70
2018-10-01T20:29:20.852Z,8.60
2018-10-01T20:33:24.430Z,8.60
2018-10-01T20:37:28.150Z,8.60
2018-10-01T20:41:31.896Z,8.60
2018-10-01T20:45:35.641Z,8.60
2018-10-01T20:49:39.360Z,8.60
2018-10-01T20:53:43.135Z,8.60
2018-10-01T20:57:46.841Z,8.60
2018-10-01T21:01:50.549Z,8.60
2018-10-01T21:05:54.327Z,8.50
2018-10-01T21:09:58.026Z,8.50
2018-10-01T21:14:01.735Z,8.50
2018-10-01T21:18:05.540Z,8.50
2018-10-01T21:22:09.240Z,8.40
2018-10-01T21:26:13.037Z,8.40
2018-10-01T21:30:16.740Z,8.40
2018-10-01T21:34:20.455Z,8.40
2018-10-01T21:38:24.163Z,8.30
2018-10-01T21:42:28.346Z,8.20
2018-10-01T21:46:32.069Z,8.30
2018-10-01T21:50:35.866Z,8.20
2018-10-01T21:54:39.541Z,8.20
2018-10-01T21:58:43.294Z,8.20
2018-10-01T22:02:47.008Z,8.10
2018-10-01T22:06:50.722Z,8.10
2018-10-01T22:10:54.500Z,8.10
2018-10-01T22:14:58.161Z,8.00
2018-10-01T22:19:01.980Z,8.00
2018-10-01T22:23:05.729Z,7.90
2018-10-01T22:27:09.424Z,7.90
2018-10-01T22:31:13.141Z,7.80
2018-10-01T22:35:16.861Z,7.90
2018-10-01T22:39:20.550Z,7.80
2018-10-01T22:43:24.280Z,7.80
2018-10-01T22:47:27.979Z,7.80
2018-10-01T22:51:31.749Z,7.70
2018-10-01T22:55:35.407Z,7.70
2018-10-01T22:59:39.168Z,7.70
2018-10-01T23:03:43.232Z,7.60
2018-10-01T23:07:46.925Z,7.60
2018-10-01T23:11:50.615Z,7.50
2018-10-01T23:15:54.300Z,7.50
2018-10-01T23:19:58.040Z,7.50
2018-10-01T23:24:01.776Z,7.50
2018-10-01T23:28:05.566Z,7.40
2018-10-01T23:32:09.289Z,7.40
2018-10-01T23:36:12.991Z,7.40
2018-10-01T23:40:16.717Z,7.40
2018-10-01T23:44:20.439Z,7.30
2018-10-01T23:48:24.271Z,7.20
2018-10-01T23:52:27.943Z,7.20
2018-10-01T23:56:31.728Z,7.20
